ACA05YT CYQX-BGBW
Flight info
| Callsign | ACA05YT |
|---|---|
| Flight time | 1h 59m |
| Altitude | 37000 |
| Route | YQX DCT TUDEP/M076F370 DCT 56N050W DCT NA |
| Aircraft | A320/M-SDE3FGHIRWY/LB1 |
Departure
| Time | 2026-05-05 14:12 |
|---|---|
| Airport | Gander International Airport (CYQX) |
Arrival
| Time | 2026-05-05 16:11 |
|---|---|
| Airport | Narsarsuaq Airport (BGBW) |
| Time | Latitude | Longitude | Altitude | Speed | Heading |
|---|---|---|---|---|---|
| 2026-05-05 13:44 | 48.94670 | -54.57208 | 454 ft | 0 kts | 152° |
| 2026-05-05 13:46 | 48.94694 | -54.57305 | 455 ft | 0 kts | 198° |
| 2026-05-05 14:05 | 48.94715 | -54.57293 | 454 ft | 4 kts | 205° |
| 2026-05-05 14:05 | 48.94738 | -54.57273 | 455 ft | 4 kts | 225° |
| 2026-05-05 14:05 | 48.94749 | -54.57242 | 455 ft | 3 kts | 282° |
| 2026-05-05 14:05 | 48.94748 | -54.57236 | 455 ft | 0 kts | 288° |
| 2026-05-05 14:07 | 48.94748 | -54.57237 | 455 ft | 1 kts | 280° |
| 2026-05-05 14:08 | 48.94742 | -54.57241 | 454 ft | 1 kts | 215° |
| 2026-05-05 14:08 | 48.94731 | -54.57202 | 453 ft | 10 kts | 108° |
| 2026-05-05 14:08 | 48.94719 | -54.57049 | 453 ft | 16 kts | 70° |
| 2026-05-05 14:08 | 48.94799 | -54.56965 | 453 ft | 13 kts | 20° |
| 2026-05-05 14:09 | 48.94881 | -54.56923 | 454 ft | 11 kts | 18° |
| 2026-05-05 14:09 | 48.94938 | -54.56874 | 451 ft | 9 kts | 68° |
| 2026-05-05 14:09 | 48.94936 | -54.56768 | 451 ft | 13 kts | 106° |
| 2026-05-05 14:09 | 48.94898 | -54.56593 | 448 ft | 21 kts | 109° |
| 2026-05-05 14:10 | 48.94851 | -54.56382 | 445 ft | 21 kts | 107° |
| 2026-05-05 14:10 | 48.94808 | -54.56176 | 436 ft | 20 kts | 108° |
| 2026-05-05 14:10 | 48.94773 | -54.56040 | 429 ft | 12 kts | 137° |
| 2026-05-05 14:10 | 48.94713 | -54.56026 | 443 ft | 0 kts | 193° |
| 2026-05-05 14:11 | 48.94675 | -54.56039 | 444 ft | 27 kts | 193° |
| 2026-05-05 14:11 | 48.94250 | -54.56169 | 450 ft | 94 kts | 191° |
| 2026-05-05 14:11 | 48.93435 | -54.56414 | 463 ft | 144 kts | 191° |
| 2026-05-05 14:11 | 48.92433 | -54.56673 | 981 ft | 146 kts | 196° |
| 2026-05-05 14:12 | 48.91406 | -54.56785 | 1716 ft | 157 kts | 179° |
| 2026-05-05 14:12 | 48.90424 | -54.55814 | 2380 ft | 190 kts | 133° |
| 2026-05-05 14:12 | 48.90074 | -54.53691 | 2706 ft | 231 kts | 85° |
| 2026-05-05 14:12 | 48.90777 | -54.51390 | 2937 ft | 254 kts | 40° |
| 2026-05-05 14:13 | 48.92327 | -54.50058 | 3265 ft | 266 kts | 9° |
| 2026-05-05 14:13 | 48.94190 | -54.49479 | 3823 ft | 278 kts | 1° |
| 2026-05-05 14:13 | 48.96112 | -54.49010 | 4695 ft | 281 kts | 0° |
| 2026-05-05 14:13 | 48.98050 | -54.48541 | 5635 ft | 281 kts | 359° |
| 2026-05-05 14:14 | 48.99976 | -54.48051 | 6603 ft | 282 kts | 1° |
| 2026-05-05 14:14 | 49.01900 | -54.47257 | 7455 ft | 290 kts | 8° |
| 2026-05-05 14:14 | 49.03831 | -54.46222 | 8302 ft | 296 kts | 11° |
| 2026-05-05 14:14 | 49.05769 | -54.45086 | 9109 ft | 301 kts | 13° |
| 2026-05-05 14:15 | 49.07726 | -54.43919 | 9899 ft | 304 kts | 13° |
| 2026-05-05 14:15 | 49.09759 | -54.42731 | 10260 ft | 324 kts | 13° |
| 2026-05-05 14:15 | 49.11941 | -54.41496 | 10533 ft | 343 kts | 13° |
| 2026-05-05 14:15 | 49.14212 | -54.40225 | 11150 ft | 350 kts | 13° |
| 2026-05-05 14:16 | 49.16485 | -54.38956 | 11837 ft | 354 kts | 13° |
| 2026-05-05 14:16 | 49.18812 | -54.37662 | 12571 ft | 358 kts | 13° |
| 2026-05-05 14:16 | 49.21162 | -54.36357 | 13299 ft | 361 kts | 13° |
| 2026-05-05 14:16 | 49.23539 | -54.35037 | 13959 ft | 365 kts | 13° |
| 2026-05-05 14:17 | 49.25932 | -54.33712 | 14615 ft | 368 kts | 12° |
| 2026-05-05 14:17 | 49.28351 | -54.32375 | 15247 ft | 371 kts | 12° |
| 2026-05-05 14:17 | 49.30783 | -54.31030 | 15866 ft | 374 kts | 12° |
| 2026-05-05 14:17 | 49.33236 | -54.29670 | 16490 ft | 377 kts | 12° |
| 2026-05-05 14:18 | 49.35717 | -54.28287 | 17109 ft | 380 kts | 12° |
| 2026-05-05 14:18 | 49.38213 | -54.26889 | 17729 ft | 384 kts | 12° |
| 2026-05-05 14:18 | 49.40730 | -54.25483 | 18287 ft | 387 kts | 12° |
| 2026-05-05 14:18 | 49.43271 | -54.24064 | 18823 ft | 389 kts | 12° |
| 2026-05-05 14:19 | 49.45826 | -54.22639 | 19357 ft | 392 kts | 12° |
| 2026-05-05 14:19 | 49.48413 | -54.21189 | 19924 ft | 395 kts | 12° |
| 2026-05-05 14:19 | 49.51000 | -54.19737 | 20462 ft | 398 kts | 12° |
| 2026-05-05 14:19 | 49.53597 | -54.18282 | 20987 ft | 400 kts | 12° |
| 2026-05-05 14:20 | 49.56217 | -54.16810 | 21505 ft | 403 kts | 12° |
| 2026-05-05 14:20 | 49.58884 | -54.15310 | 22016 ft | 406 kts | 12° |
| 2026-05-05 14:20 | 49.61544 | -54.13813 | 22519 ft | 409 kts | 13° |
| 2026-05-05 14:20 | 49.64211 | -54.12308 | 23009 ft | 412 kts | 13° |
| 2026-05-05 14:21 | 49.66927 | -54.10773 | 23461 ft | 415 kts | 13° |
| 2026-05-05 14:21 | 49.69628 | -54.09250 | 23869 ft | 418 kts | 13° |
| 2026-05-05 14:21 | 49.72379 | -54.07695 | 24300 ft | 420 kts | 13° |
| 2026-05-05 14:21 | 49.75112 | -54.06147 | 24694 ft | 422 kts | 13° |
| 2026-05-05 14:22 | 49.77890 | -54.04571 | 25077 ft | 425 kts | 13° |
| 2026-05-05 14:22 | 49.80683 | -54.02985 | 25455 ft | 427 kts | 13° |
| 2026-05-05 14:22 | 49.83489 | -54.01391 | 25817 ft | 429 kts | 13° |
| 2026-05-05 14:22 | 49.86285 | -53.99803 | 26190 ft | 431 kts | 13° |
| 2026-05-05 14:23 | 49.89097 | -53.98206 | 26571 ft | 433 kts | 13° |
| 2026-05-05 14:23 | 49.91951 | -53.96582 | 26943 ft | 435 kts | 13° |
| 2026-05-05 14:23 | 49.94791 | -53.94963 | 27286 ft | 438 kts | 13° |
| 2026-05-05 14:23 | 49.97662 | -53.93324 | 27578 ft | 441 kts | 13° |
| 2026-05-05 14:24 | 50.00565 | -53.91662 | 27901 ft | 444 kts | 13° |
| 2026-05-05 14:24 | 50.03449 | -53.90007 | 28218 ft | 446 kts | 13° |
| 2026-05-05 14:24 | 50.06357 | -53.88331 | 28532 ft | 448 kts | 14° |
| 2026-05-05 14:24 | 50.09266 | -53.86652 | 28842 ft | 450 kts | 14° |
| 2026-05-05 14:25 | 50.12210 | -53.84951 | 29123 ft | 453 kts | 14° |
| 2026-05-05 14:25 | 50.15205 | -53.83220 | 29420 ft | 455 kts | 14° |
| 2026-05-05 14:25 | 50.18165 | -53.81514 | 29699 ft | 457 kts | 14° |
| 2026-05-05 14:25 | 50.21138 | -53.79798 | 29926 ft | 459 kts | 14° |
| 2026-05-05 14:26 | 50.24165 | -53.78050 | 30143 ft | 461 kts | 14° |
| 2026-05-05 14:26 | 50.27149 | -53.76326 | 30356 ft | 463 kts | 14° |
| 2026-05-05 14:26 | 50.30166 | -53.74581 | 30566 ft | 464 kts | 15° |
| 2026-05-05 14:26 | 50.33203 | -53.72815 | 30777 ft | 466 kts | 15° |
| 2026-05-05 14:27 | 50.36243 | -53.71041 | 31040 ft | 466 kts | 15° |
| 2026-05-05 14:27 | 50.39277 | -53.69265 | 31342 ft | 465 kts | 15° |
| 2026-05-05 14:27 | 50.42311 | -53.67488 | 31622 ft | 465 kts | 16° |
| 2026-05-05 14:27 | 50.45344 | -53.65714 | 31901 ft | 465 kts | 16° |
| 2026-05-05 14:28 | 50.48376 | -53.63940 | 32190 ft | 465 kts | 17° |
| 2026-05-05 14:28 | 50.51409 | -53.62156 | 32479 ft | 464 kts | 17° |
| 2026-05-05 14:28 | 50.54439 | -53.60377 | 32743 ft | 464 kts | 17° |
| 2026-05-05 14:28 | 50.57467 | -53.58607 | 33048 ft | 464 kts | 17° |
| 2026-05-05 14:29 | 50.60488 | -53.56837 | 33316 ft | 463 kts | 17° |
| 2026-05-05 14:29 | 50.63513 | -53.55056 | 33624 ft | 463 kts | 17° |
| 2026-05-05 14:29 | 50.66497 | -53.53297 | 33804 ft | 465 kts | 17° |
| 2026-05-05 14:29 | 50.69571 | -53.51485 | 33971 ft | 466 kts | 17° |
| 2026-05-05 14:30 | 50.72572 | -53.49706 | 34188 ft | 466 kts | 17° |
| 2026-05-05 14:30 | 50.75612 | -53.47900 | 34395 ft | 467 kts | 17° |
| 2026-05-05 14:30 | 50.78653 | -53.46096 | 34584 ft | 467 kts | 17° |
| 2026-05-05 14:30 | 50.81697 | -53.44285 | 34755 ft | 468 kts | 17° |
| 2026-05-05 14:31 | 50.84743 | -53.42470 | 34926 ft | 468 kts | 17° |
| 2026-05-05 14:31 | 50.87794 | -53.40654 | 35091 ft | 469 kts | 18° |
| 2026-05-05 14:31 | 50.90851 | -53.38834 | 35228 ft | 470 kts | 18° |
| 2026-05-05 14:31 | 50.93924 | -53.36998 | 35358 ft | 472 kts | 17° |
| 2026-05-05 14:32 | 50.97002 | -53.35157 | 35519 ft | 472 kts | 17° |
| 2026-05-05 14:32 | 51.00069 | -53.33320 | 35669 ft | 472 kts | 18° |
| 2026-05-05 14:32 | 51.03154 | -53.31467 | 35821 ft | 473 kts | 18° |
| 2026-05-05 14:32 | 51.06232 | -53.29621 | 35966 ft | 473 kts | 18° |
| 2026-05-05 14:33 | 51.09312 | -53.27773 | 36094 ft | 473 kts | 17° |
| 2026-05-05 14:33 | 51.12390 | -53.25919 | 36235 ft | 474 kts | 18° |
| 2026-05-05 14:33 | 51.15482 | -53.24053 | 36356 ft | 474 kts | 18° |
| 2026-05-05 14:33 | 51.18536 | -53.22216 | 36486 ft | 474 kts | 18° |
| 2026-05-05 14:34 | 51.21627 | -53.20374 | 36614 ft | 474 kts | 18° |
| 2026-05-05 14:34 | 51.24728 | -53.18537 | 36639 ft | 475 kts | 18° |
| 2026-05-05 14:34 | 51.30924 | -53.14869 | 36636 ft | 475 kts | 18° |
| 2026-05-05 14:35 | 51.37126 | -53.11178 | 36626 ft | 475 kts | 18° |
| 2026-05-05 14:35 | 51.43316 | -53.07466 | 36628 ft | 475 kts | 18° |
| 2026-05-05 14:36 | 51.49485 | -53.03762 | 36626 ft | 476 kts | 18° |
| 2026-05-05 14:36 | 51.55687 | -53.00032 | 36627 ft | 476 kts | 18° |
| 2026-05-05 14:37 | 51.61887 | -52.96287 | 36617 ft | 476 kts | 18° |
| 2026-05-05 14:37 | 51.68092 | -52.92528 | 36608 ft | 477 kts | 18° |
| 2026-05-05 14:38 | 51.74301 | -52.88754 | 36604 ft | 477 kts | 18° |
| 2026-05-05 14:38 | 51.80521 | -52.84949 | 36607 ft | 478 kts | 18° |
| 2026-05-05 14:39 | 51.86738 | -52.81159 | 36593 ft | 478 kts | 18° |
| 2026-05-05 14:39 | 51.92967 | -52.77355 | 36591 ft | 478 kts | 18° |
| 2026-05-05 14:40 | 51.99159 | -52.73551 | 36591 ft | 478 kts | 19° |
| 2026-05-05 14:40 | 52.05378 | -52.69715 | 36592 ft | 478 kts | 19° |
| 2026-05-05 14:41 | 52.11600 | -52.65861 | 36575 ft | 478 kts | 19° |
| 2026-05-05 14:41 | 52.17840 | -52.61991 | 36576 ft | 478 kts | 19° |
| 2026-05-05 14:42 | 52.24055 | -52.58117 | 36576 ft | 478 kts | 19° |
| 2026-05-05 14:42 | 52.30269 | -52.54242 | 36579 ft | 478 kts | 19° |
| 2026-05-05 14:43 | 52.36484 | -52.50360 | 36579 ft | 478 kts | 19° |
| 2026-05-05 14:43 | 52.42669 | -52.46491 | 36580 ft | 478 kts | 20° |
| 2026-05-05 14:44 | 52.48877 | -52.42578 | 36580 ft | 478 kts | 19° |
| 2026-05-05 14:44 | 52.55099 | -52.38644 | 36580 ft | 478 kts | 20° |
| 2026-05-05 14:45 | 52.61317 | -52.34698 | 36592 ft | 479 kts | 19° |
| 2026-05-05 14:45 | 52.67494 | -52.30767 | 36590 ft | 478 kts | 19° |
| 2026-05-05 14:46 | 52.73715 | -52.26814 | 36587 ft | 478 kts | 19° |
| 2026-05-05 14:46 | 52.79921 | -52.22864 | 36585 ft | 478 kts | 20° |
| 2026-05-05 14:47 | 52.86129 | -52.18876 | 36578 ft | 478 kts | 20° |
| 2026-05-05 14:47 | 52.92341 | -52.14866 | 36571 ft | 478 kts | 20° |
| 2026-05-05 14:48 | 52.98499 | -52.10891 | 36573 ft | 478 kts | 20° |
| 2026-05-05 14:48 | 53.04703 | -52.06876 | 36579 ft | 478 kts | 20° |
| 2026-05-05 14:49 | 53.10906 | -52.02857 | 36574 ft | 479 kts | 20° |
| 2026-05-05 14:49 | 53.17116 | -51.98808 | 36559 ft | 479 kts | 21° |
| 2026-05-05 14:50 | 53.23327 | -51.94746 | 36569 ft | 480 kts | 21° |
| 2026-05-05 14:50 | 53.29548 | -51.90662 | 36589 ft | 480 kts | 21° |
| 2026-05-05 14:51 | 53.35738 | -51.86606 | 36589 ft | 480 kts | 21° |
| 2026-05-05 14:51 | 53.41862 | -51.82573 | 36593 ft | 480 kts | 21° |
| 2026-05-05 14:52 | 53.46919 | -51.79225 | 36556 ft | 475 kts | 21° |
| 2026-05-05 14:52 | 53.53053 | -51.75152 | 36550 ft | 475 kts | 21° |
| 2026-05-05 14:53 | 53.59217 | -51.71061 | 36542 ft | 477 kts | 21° |
| 2026-05-05 14:53 | 53.65395 | -51.66959 | 36557 ft | 478 kts | 21° |
| 2026-05-05 14:54 | 53.71582 | -51.62810 | 36555 ft | 479 kts | 22° |
| 2026-05-05 14:54 | 53.77770 | -51.58643 | 36560 ft | 479 kts | 22° |
| 2026-05-05 14:55 | 53.83968 | -51.54461 | 36559 ft | 480 kts | 22° |
| 2026-05-05 14:55 | 53.90176 | -51.50274 | 36570 ft | 480 kts | 22° |
| 2026-05-05 14:56 | 53.96376 | -51.46070 | 36588 ft | 480 kts | 22° |
| 2026-05-05 14:56 | 54.02572 | -51.41859 | 36585 ft | 479 kts | 22° |
| 2026-05-05 14:57 | 54.08717 | -51.37663 | 36573 ft | 479 kts | 23° |
| 2026-05-05 14:57 | 54.14898 | -51.33433 | 36579 ft | 479 kts | 23° |
| 2026-05-05 14:58 | 54.21076 | -51.29193 | 36584 ft | 478 kts | 23° |
| 2026-05-05 14:58 | 54.27256 | -51.24931 | 36579 ft | 478 kts | 23° |
| 2026-05-05 14:59 | 54.33428 | -51.20660 | 36571 ft | 479 kts | 23° |
| 2026-05-05 14:59 | 54.39603 | -51.16368 | 36581 ft | 479 kts | 23° |
| 2026-05-05 15:00 | 54.44745 | -51.12802 | 36595 ft | 479 kts | 24° |
| 2026-05-05 15:00 | 54.51934 | -51.07802 | 36597 ft | 479 kts | 24° |
| 2026-05-05 15:01 | 54.58122 | -51.03466 | 36581 ft | 480 kts | 24° |
| 2026-05-05 15:01 | 54.64302 | -50.99110 | 36611 ft | 479 kts | 24° |
| 2026-05-05 15:02 | 54.70484 | -50.94744 | 36607 ft | 479 kts | 24° |
| 2026-05-05 15:02 | 54.76655 | -50.90394 | 36616 ft | 478 kts | 24° |
| 2026-05-05 15:03 | 54.82824 | -50.86034 | 36587 ft | 478 kts | 24° |
| 2026-05-05 15:03 | 54.88983 | -50.81655 | 36604 ft | 478 kts | 25° |
| 2026-05-05 15:04 | 54.95088 | -50.77280 | 36616 ft | 477 kts | 25° |
| 2026-05-05 15:04 | 55.01232 | -50.72864 | 36620 ft | 477 kts | 25° |
| 2026-05-05 15:05 | 55.10435 | -50.66242 | 36613 ft | 476 kts | 25° |
| 2026-05-05 15:06 | 55.16566 | -50.61820 | 36625 ft | 476 kts | 24° |
| 2026-05-05 15:06 | 55.22657 | -50.57405 | 36627 ft | 476 kts | 25° |
| 2026-05-05 15:07 | 55.28771 | -50.52944 | 36624 ft | 476 kts | 25° |
| 2026-05-05 15:07 | 55.34903 | -50.48471 | 36610 ft | 476 kts | 25° |
| 2026-05-05 15:08 | 55.41020 | -50.43993 | 36630 ft | 475 kts | 25° |
| 2026-05-05 15:08 | 55.47119 | -50.39510 | 36639 ft | 475 kts | 25° |
| 2026-05-05 15:09 | 55.53181 | -50.35046 | 36640 ft | 475 kts | 26° |
| 2026-05-05 15:09 | 55.59280 | -50.30529 | 36653 ft | 475 kts | 25° |
| 2026-05-05 15:10 | 55.65366 | -50.26000 | 36637 ft | 474 kts | 26° |
| 2026-05-05 15:10 | 55.71451 | -50.21478 | 36652 ft | 473 kts | 25° |
| 2026-05-05 15:11 | 55.77522 | -50.16951 | 36669 ft | 472 kts | 26° |
| 2026-05-05 15:11 | 55.83545 | -50.12442 | 36663 ft | 472 kts | 26° |
| 2026-05-05 15:12 | 55.89586 | -50.07892 | 36656 ft | 471 kts | 26° |
| 2026-05-05 15:12 | 55.95623 | -50.03321 | 36658 ft | 471 kts | 26° |
| 2026-05-05 15:13 | 56.01655 | -49.98740 | 36669 ft | 470 kts | 26° |
| 2026-05-05 15:13 | 56.07653 | -49.94199 | 36680 ft | 470 kts | 26° |
| 2026-05-05 15:14 | 56.13681 | -49.89652 | 36660 ft | 470 kts | 27° |
| 2026-05-05 15:14 | 56.19705 | -49.85076 | 36673 ft | 469 kts | 27° |
| 2026-05-05 15:15 | 56.25703 | -49.80484 | 36679 ft | 469 kts | 27° |
| 2026-05-05 15:15 | 56.31719 | -49.75860 | 36693 ft | 469 kts | 27° |
| 2026-05-05 15:16 | 56.37731 | -49.71226 | 36698 ft | 469 kts | 27° |
| 2026-05-05 15:16 | 56.43697 | -49.66634 | 36689 ft | 469 kts | 27° |
| 2026-05-05 15:17 | 56.49698 | -49.61979 | 36699 ft | 469 kts | 27° |
| 2026-05-05 15:17 | 56.55687 | -49.57311 | 36718 ft | 468 kts | 27° |
| 2026-05-05 15:18 | 56.61678 | -49.52652 | 36729 ft | 468 kts | 27° |
| 2026-05-05 15:18 | 56.67663 | -49.47965 | 36704 ft | 468 kts | 28° |
| 2026-05-05 15:19 | 56.73647 | -49.43258 | 36734 ft | 468 kts | 28° |
| 2026-05-05 15:19 | 56.79623 | -49.38546 | 36735 ft | 467 kts | 28° |
| 2026-05-05 15:20 | 56.85583 | -49.33830 | 36755 ft | 467 kts | 28° |
| 2026-05-05 15:20 | 56.91539 | -49.29110 | 36757 ft | 466 kts | 28° |
| 2026-05-05 15:21 | 56.97489 | -49.24371 | 36734 ft | 466 kts | 28° |
| 2026-05-05 15:21 | 57.03414 | -49.19635 | 36742 ft | 466 kts | 28° |
| 2026-05-05 15:22 | 57.09364 | -49.14871 | 36757 ft | 465 kts | 28° |
| 2026-05-05 15:22 | 57.15259 | -49.10121 | 36761 ft | 466 kts | 28° |
| 2026-05-05 15:23 | 57.21198 | -49.05320 | 36744 ft | 465 kts | 29° |
| 2026-05-05 15:23 | 57.27122 | -49.00500 | 36779 ft | 465 kts | 29° |
| 2026-05-05 15:24 | 57.33046 | -48.95678 | 36783 ft | 465 kts | 29° |
| 2026-05-05 15:24 | 57.38967 | -48.90854 | 36802 ft | 465 kts | 29° |
| 2026-05-05 15:25 | 57.44886 | -48.86010 | 36810 ft | 464 kts | 29° |
| 2026-05-05 15:25 | 57.50789 | -48.81155 | 36799 ft | 463 kts | 30° |
| 2026-05-05 15:26 | 57.56673 | -48.76291 | 36816 ft | 462 kts | 30° |
| 2026-05-05 15:26 | 57.62554 | -48.71443 | 36833 ft | 461 kts | 30° |
| 2026-05-05 15:27 | 57.68419 | -48.66580 | 36836 ft | 461 kts | 30° |
| 2026-05-05 15:27 | 57.74239 | -48.61721 | 36847 ft | 460 kts | 30° |
| 2026-05-05 15:28 | 57.80080 | -48.56815 | 36848 ft | 460 kts | 30° |
| 2026-05-05 15:28 | 57.85927 | -48.51894 | 36859 ft | 460 kts | 30° |
| 2026-05-05 15:29 | 57.91767 | -48.46970 | 36855 ft | 460 kts | 30° |
| 2026-05-05 15:29 | 57.97609 | -48.42042 | 36854 ft | 460 kts | 30° |
| 2026-05-05 15:30 | 58.03439 | -48.37095 | 36819 ft | 459 kts | 30° |
| 2026-05-05 15:30 | 58.09259 | -48.32131 | 36853 ft | 458 kts | 30° |
| 2026-05-05 15:31 | 58.14092 | -48.28000 | 36875 ft | 457 kts | 30° |
| 2026-05-05 15:31 | 58.19890 | -48.23018 | 36892 ft | 457 kts | 31° |
| 2026-05-05 15:32 | 58.25666 | -48.18048 | 36902 ft | 456 kts | 31° |
| 2026-05-05 15:32 | 58.31413 | -48.13089 | 36853 ft | 455 kts | 31° |
| 2026-05-05 15:33 | 58.37174 | -48.08092 | 36882 ft | 454 kts | 31° |
| 2026-05-05 15:33 | 58.42913 | -48.03093 | 36892 ft | 454 kts | 31° |
| 2026-05-05 15:34 | 58.48642 | -47.98093 | 36909 ft | 454 kts | 31° |
| 2026-05-05 15:34 | 58.54392 | -47.93068 | 36911 ft | 454 kts | 31° |
| 2026-05-05 15:35 | 58.60118 | -47.88032 | 36893 ft | 453 kts | 31° |
| 2026-05-05 15:35 | 58.65843 | -47.82967 | 36919 ft | 452 kts | 31° |
| 2026-05-05 15:36 | 58.71539 | -47.77915 | 36945 ft | 451 kts | 31° |
| 2026-05-05 15:36 | 58.77236 | -47.72861 | 36937 ft | 451 kts | 31° |
| 2026-05-05 15:37 | 58.82948 | -47.67763 | 36961 ft | 451 kts | 31° |
| 2026-05-05 15:37 | 58.88617 | -47.62685 | 36939 ft | 450 kts | 31° |
| 2026-05-05 15:38 | 58.94285 | -47.57587 | 36966 ft | 449 kts | 32° |
| 2026-05-05 15:38 | 58.99926 | -47.52490 | 36970 ft | 448 kts | 33° |
| 2026-05-05 15:39 | 59.05565 | -47.47372 | 36976 ft | 447 kts | 32° |
| 2026-05-05 15:39 | 59.11212 | -47.42244 | 36973 ft | 447 kts | 33° |
| 2026-05-05 15:40 | 59.16850 | -47.37116 | 36952 ft | 447 kts | 33° |
| 2026-05-05 15:40 | 59.22452 | -47.31982 | 36957 ft | 447 kts | 32° |
| 2026-05-05 15:41 | 59.28093 | -47.26803 | 36972 ft | 447 kts | 33° |
| 2026-05-05 15:41 | 59.33729 | -47.21608 | 36973 ft | 447 kts | 32° |
| 2026-05-05 15:42 | 59.39315 | -47.16439 | 36987 ft | 447 kts | 33° |
| 2026-05-05 15:42 | 59.44930 | -47.11220 | 36975 ft | 445 kts | 33° |
| 2026-05-05 15:43 | 59.50541 | -47.05978 | 37002 ft | 444 kts | 33° |
| 2026-05-05 15:43 | 59.56111 | -47.00774 | 37006 ft | 444 kts | 32° |
| 2026-05-05 15:44 | 59.61669 | -46.95568 | 37020 ft | 443 kts | 31° |
| 2026-05-05 15:44 | 59.67222 | -46.90320 | 37013 ft | 442 kts | 33° |
| 2026-05-05 15:45 | 59.72787 | -46.85055 | 36546 ft | 446 kts | 32° |
| 2026-05-05 15:45 | 59.75588 | -46.82397 | 35908 ft | 444 kts | 32° |
| 2026-05-05 15:45 | 59.78362 | -46.79774 | 35378 ft | 440 kts | 32° |
| 2026-05-05 15:45 | 59.81121 | -46.77163 | 34855 ft | 436 kts | 32° |
| 2026-05-05 15:46 | 59.83850 | -46.74566 | 34329 ft | 433 kts | 32° |
| 2026-05-05 15:46 | 59.86551 | -46.71983 | 33765 ft | 429 kts | 33° |
| 2026-05-05 15:46 | 59.89227 | -46.69415 | 33232 ft | 425 kts | 33° |
| 2026-05-05 15:46 | 59.91880 | -46.66865 | 32714 ft | 421 kts | 33° |
| 2026-05-05 15:47 | 59.94504 | -46.64343 | 32205 ft | 417 kts | 33° |
| 2026-05-05 15:47 | 59.96233 | -46.62680 | 31869 ft | 415 kts | 33° |
| 2026-05-05 15:47 | 59.99690 | -46.59343 | 31193 ft | 410 kts | 32° |
| 2026-05-05 15:47 | 60.02246 | -46.56868 | 30706 ft | 407 kts | 32° |
| 2026-05-05 15:48 | 60.04791 | -46.54400 | 30218 ft | 405 kts | 32° |
| 2026-05-05 15:48 | 60.07318 | -46.51952 | 29702 ft | 403 kts | 32° |
| 2026-05-05 15:48 | 60.09828 | -46.49516 | 29239 ft | 398 kts | 32° |
| 2026-05-05 15:48 | 60.12309 | -46.47103 | 28783 ft | 394 kts | 32° |
| 2026-05-05 15:49 | 60.14761 | -46.44711 | 28345 ft | 391 kts | 32° |
| 2026-05-05 15:49 | 60.17199 | -46.42327 | 27898 ft | 388 kts | 32° |
| 2026-05-05 15:49 | 60.19617 | -46.39953 | 27459 ft | 385 kts | 32° |
| 2026-05-05 15:49 | 60.22010 | -46.37604 | 27031 ft | 382 kts | 32° |
| 2026-05-05 15:50 | 60.24390 | -46.35268 | 26590 ft | 379 kts | 32° |
| 2026-05-05 15:50 | 60.26753 | -46.32947 | 26128 ft | 376 kts | 32° |
| 2026-05-05 15:50 | 60.29072 | -46.30670 | 25726 ft | 373 kts | 32° |
| 2026-05-05 15:50 | 60.31397 | -46.28377 | 25285 ft | 372 kts | 32° |
| 2026-05-05 15:51 | 60.33723 | -46.26077 | 24832 ft | 371 kts | 32° |
| 2026-05-05 15:51 | 60.36034 | -46.23793 | 24379 ft | 370 kts | 32° |
| 2026-05-05 15:51 | 60.38346 | -46.21503 | 23916 ft | 370 kts | 32° |
| 2026-05-05 15:51 | 60.40659 | -46.19209 | 23419 ft | 371 kts | 32° |
| 2026-05-05 15:52 | 60.42981 | -46.16906 | 22915 ft | 370 kts | 32° |
| 2026-05-05 15:52 | 60.45290 | -46.14610 | 22450 ft | 368 kts | 32° |
| 2026-05-05 15:52 | 60.47580 | -46.12323 | 21981 ft | 367 kts | 31° |
| 2026-05-05 15:52 | 60.49865 | -46.10045 | 21526 ft | 365 kts | 31° |
| 2026-05-05 15:53 | 60.52142 | -46.07774 | 21061 ft | 364 kts | 31° |
| 2026-05-05 15:53 | 60.54412 | -46.05500 | 20608 ft | 363 kts | 31° |
| 2026-05-05 15:53 | 60.56674 | -46.03234 | 20150 ft | 363 kts | 31° |
| 2026-05-05 15:53 | 60.58938 | -46.00962 | 19705 ft | 362 kts | 31° |
| 2026-05-05 15:54 | 60.61196 | -45.98694 | 19259 ft | 362 kts | 31° |
| 2026-05-05 15:54 | 60.63452 | -45.96420 | 18810 ft | 361 kts | 30° |
| 2026-05-05 15:54 | 60.65697 | -45.94148 | 18367 ft | 360 kts | 30° |
| 2026-05-05 15:54 | 60.67933 | -45.91883 | 17880 ft | 359 kts | 30° |
| 2026-05-05 15:55 | 60.70169 | -45.89616 | 17436 ft | 356 kts | 30° |
| 2026-05-05 15:55 | 60.72380 | -45.87380 | 17010 ft | 354 kts | 30° |
| 2026-05-05 15:55 | 60.74559 | -45.85177 | 16587 ft | 352 kts | 30° |
| 2026-05-05 15:55 | 60.76749 | -45.82952 | 16160 ft | 351 kts | 30° |
| 2026-05-05 15:56 | 60.78929 | -45.80733 | 15742 ft | 349 kts | 31° |
| 2026-05-05 15:56 | 60.81102 | -45.78513 | 15322 ft | 348 kts | 30° |
| 2026-05-05 15:56 | 60.83261 | -45.76304 | 14899 ft | 346 kts | 30° |
| 2026-05-05 15:56 | 60.85412 | -45.74102 | 14497 ft | 345 kts | 30° |
| 2026-05-05 15:57 | 60.87526 | -45.71938 | 14128 ft | 343 kts | 30° |
| 2026-05-05 15:57 | 60.89652 | -45.69755 | 13676 ft | 343 kts | 30° |
| 2026-05-05 15:57 | 60.91775 | -45.67569 | 13276 ft | 339 kts | 30° |
| 2026-05-05 15:57 | 60.93890 | -45.65392 | 12823 ft | 338 kts | 30° |
| 2026-05-05 15:58 | 60.95981 | -45.63235 | 12420 ft | 335 kts | 30° |
| 2026-05-05 15:58 | 60.98054 | -45.61096 | 12003 ft | 332 kts | 30° |
| 2026-05-05 15:58 | 61.00111 | -45.58974 | 11594 ft | 330 kts | 30° |
| 2026-05-05 15:58 | 61.02152 | -45.56859 | 11172 ft | 328 kts | 31° |
| 2026-05-05 15:59 | 61.04183 | -45.54750 | 10883 ft | 323 kts | 31° |
| 2026-05-05 15:59 | 61.06152 | -45.52712 | 10728 ft | 312 kts | 31° |
| 2026-05-05 15:59 | 61.08086 | -45.50706 | 10442 ft | 309 kts | 31° |
| 2026-05-05 15:59 | 61.09977 | -45.48736 | 10308 ft | 300 kts | 31° |
| 2026-05-05 16:00 | 61.11835 | -45.46833 | 10076 ft | 294 kts | 30° |
| 2026-05-05 16:00 | 61.13639 | -45.44992 | 9950 ft | 284 kts | 31° |
| 2026-05-05 16:00 | 61.15356 | -45.43220 | 9822 ft | 274 kts | 31° |
| 2026-05-05 16:00 | 61.17005 | -45.41497 | 9689 ft | 265 kts | 31° |
| 2026-05-05 16:01 | 61.18626 | -45.39808 | 9564 ft | 256 kts | 31° |
| 2026-05-05 16:01 | 61.20194 | -45.38182 | 9429 ft | 248 kts | 31° |
| 2026-05-05 16:01 | 61.21712 | -45.36617 | 9295 ft | 240 kts | 31° |
| 2026-05-05 16:01 | 61.23179 | -45.35119 | 9160 ft | 231 kts | 31° |
| 2026-05-05 16:02 | 61.24417 | -45.33233 | 9006 ft | 213 kts | 59° |
| 2026-05-05 16:02 | 61.24953 | -45.30496 | 8613 ft | 203 kts | 93° |
| 2026-05-05 16:02 | 61.24598 | -45.27770 | 8230 ft | 196 kts | 128° |
| 2026-05-05 16:02 | 61.23532 | -45.26169 | 7875 ft | 191 kts | 162° |
| 2026-05-05 16:03 | 61.22203 | -45.26347 | 7488 ft | 200 kts | 198° |
| 2026-05-05 16:03 | 61.21133 | -45.28290 | 7111 ft | 214 kts | 230° |
| 2026-05-05 16:03 | 61.20397 | -45.30994 | 6734 ft | 215 kts | 237° |
| 2026-05-05 16:03 | 61.19718 | -45.33755 | 6356 ft | 215 kts | 237° |
| 2026-05-05 16:04 | 61.19041 | -45.36532 | 5890 ft | 217 kts | 239° |
| 2026-05-05 16:04 | 61.18428 | -45.39424 | 5427 ft | 221 kts | 247° |
| 2026-05-05 16:04 | 61.17912 | -45.42458 | 4968 ft | 225 kts | 249° |
| 2026-05-05 16:04 | 61.17386 | -45.45525 | 4466 ft | 227 kts | 249° |
| 2026-05-05 16:05 | 61.16843 | -45.48588 | 4010 ft | 227 kts | 248° |
| 2026-05-05 16:05 | 61.16251 | -45.51597 | 3634 ft | 223 kts | 247° |
| 2026-05-05 16:05 | 61.15672 | -45.54449 | 3601 ft | 206 kts | 247° |
| 2026-05-05 16:05 | 61.15125 | -45.57106 | 3629 ft | 197 kts | 245° |
| 2026-05-05 16:06 | 61.14615 | -45.59719 | 3615 ft | 197 kts | 246° |
| 2026-05-05 16:06 | 61.14119 | -45.62346 | 3602 ft | 195 kts | 246° |
| 2026-05-05 16:06 | 61.13587 | -45.64935 | 3626 ft | 196 kts | 244° |
| 2026-05-05 16:06 | 61.13016 | -45.67486 | 3615 ft | 195 kts | 239° |
| 2026-05-05 16:07 | 61.12207 | -45.69638 | 3478 ft | 191 kts | 210° |
| 2026-05-05 16:07 | 61.10998 | -45.70382 | 3219 ft | 177 kts | 166° |
| 2026-05-05 16:07 | 61.10002 | -45.69343 | 3109 ft | 155 kts | 120° |
| 2026-05-05 16:07 | 61.09759 | -45.67324 | 3110 ft | 148 kts | 76° |
| 2026-05-05 16:08 | 61.10150 | -45.65353 | 3106 ft | 148 kts | 69° |
| 2026-05-05 16:08 | 61.10429 | -45.63291 | 3113 ft | 149 kts | 80° |
| 2026-05-05 16:08 | 61.10562 | -45.61158 | 3121 ft | 150 kts | 82° |
| 2026-05-05 16:08 | 61.10670 | -45.59019 | 3111 ft | 149 kts | 83° |
| 2026-05-05 16:09 | 61.10781 | -45.56877 | 2948 ft | 150 kts | 82° |
| 2026-05-05 16:09 | 61.10888 | -45.54689 | 2710 ft | 156 kts | 77° |
| 2026-05-05 16:09 | 61.11254 | -45.52574 | 2453 ft | 157 kts | 67° |
| 2026-05-05 16:09 | 61.11737 | -45.50561 | 1770 ft | 157 kts | 62° |
| 2026-05-05 16:10 | 61.12474 | -45.48855 | 1111 ft | 162 kts | 43° |
| 2026-05-05 16:10 | 61.13372 | -45.47431 | 715 ft | 160 kts | 43° |
| 2026-05-05 16:10 | 61.14146 | -45.45948 | 457 ft | 142 kts | 42° |
| 2026-05-05 16:10 | 61.14871 | -45.44703 | 271 ft | 130 kts | 43° |
| 2026-05-05 16:11 | 61.15529 | -45.43544 | 62 ft | 117 kts | 43° |
| 2026-05-05 16:11 | 61.16303 | -45.42161 | 83 ft | 0 kts | 40° |
| 2026-05-05 16:12 | 61.16303 | -45.42160 | 83 ft | 0 kts | 40° |
| 2026-05-05 16:12 | 61.16292 | -45.42021 | 66 ft | 18 kts | 131° |
| 2026-05-05 16:13 | 61.16187 | -45.41949 | 69 ft | 1 kts | 347° |
| 2026-05-05 16:13 | 61.16194 | -45.41933 | 66 ft | 3 kts | 41° |
| 2026-05-05 16:13 | 61.16222 | -45.41915 | 69 ft | 0 kts | 9° |
| 2026-05-05 16:14 | 61.16223 | -45.41915 | 69 ft | 0 kts | 9° |